sensor_id;sensor_type;location;lat;lon;timestamp;temperature;humidity
60701;DHT22;46541;49.894;10.886;2023-12-20T00:02:10;6.30;99.90
60701;DHT22;46541;49.894;10.886;2023-12-20T00:04:37;6.30;99.90
60701;DHT22;46541;49.894;10.886;2023-12-20T00:07:04;6.30;99.90
60701;DHT22;46541;49.894;10.886;2023-12-20T00:09:31;6.30;99.90
60701;DHT22;46541;49.894;10.886;2023-12-20T00:11:57;6.30;99.90
60701;DHT22;46541;49.894;10.886;2023-12-20T00:14:24;6.30;99.90
60701;DHT22;46541;49.894;10.886;2023-12-20T00:16:51;6.30;99.90
60701;DHT22;46541;49.894;10.886;2023-12-20T00:19:17;6.30;99.90
60701;DHT22;46541;49.894;10.886;2023-12-20T00:21:44;6.30;99.90
60701;DHT22;46541;49.894;10.886;2023-12-20T00:24:11;6.30;99.90
60701;DHT22;46541;49.894;10.886;2023-12-20T00:26:38;6.30;99.90
60701;DHT22;46541;49.894;10.886;2023-12-20T00:29:05;6.30;99.90
60701;DHT22;46541;49.894;10.886;2023-12-20T00:31:31;6.30;99.90
60701;DHT22;46541;49.894;10.886;2023-12-20T00:33:58;6.20;99.90
60701;DHT22;46541;49.894;10.886;2023-12-20T00:36:25;6.20;99.90
60701;DHT22;46541;49.894;10.886;2023-12-20T00:38:52;6.10;99.90
60701;DHT22;46541;49.894;10.886;2023-12-20T00:41:19;6.10;99.90
60701;DHT22;46541;49.894;10.886;2023-12-20T00:43:45;6.20;99.90
60701;DHT22;46541;49.894;10.886;2023-12-20T00:46:12;6.20;99.90
60701;DHT22;46541;49.894;10.886;2023-12-20T00:48:39;6.20;99.90
60701;DHT22;46541;49.894;10.886;2023-12-20T00:51:08;6.20;99.90
60701;DHT22;46541;49.894;10.886;2023-12-20T00:53:35;6.20;99.90
60701;DHT22;46541;49.894;10.886;2023-12-20T00:56:02;6.20;99.90
60701;DHT22;46541;49.894;10.886;2023-12-20T00:58:29;6.20;99.90
60701;DHT22;46541;49.894;10.886;2023-12-20T01:00:56;6.30;99.90
60701;DHT22;46541;49.894;10.886;2023-12-20T01:03:23;6.30;99.90
60701;DHT22;46541;49.894;10.886;2023-12-20T01:05:50;6.20;99.90
60701;DHT22;46541;49.894;10.886;2023-12-20T01:08:17;6.20;99.90
60701;DHT22;46541;49.894;10.886;2023-12-20T01:10:43;6.20;99.90
60701;DHT22;46541;49.894;10.886;2023-12-20T01:13:10;6.20;99.90
60701;DHT22;46541;49.894;10.886;2023-12-20T01:15:37;6.20;99.90
60701;DHT22;46541;49.894;10.886;2023-12-20T01:18:04;6.20;99.90
60701;DHT22;46541;49.894;10.886;2023-12-20T01:20:31;6.20;99.90
60701;DHT22;46541;49.894;10.886;2023-12-20T01:22:58;6.20;99.90
60701;DHT22;46541;49.894;10.886;2023-12-20T01:25:24;6.20;99.90
60701;DHT22;46541;49.894;10.886;2023-12-20T01:27:51;6.30;99.90
60701;DHT22;46541;49.894;10.886;2023-12-20T01:30:18;6.30;99.90
60701;DHT22;46541;49.894;10.886;2023-12-20T01:32:45;6.30;99.90
60701;DHT22;46541;49.894;10.886;2023-12-20T01:35:12;6.30;99.90
60701;DHT22;46541;49.894;10.886;2023-12-20T01:37:40;6.30;99.90
60701;DHT22;46541;49.894;10.886;2023-12-20T01:40:07;6.30;99.90
60701;DHT22;46541;49.894;10.886;2023-12-20T01:42:34;6.30;99.90
60701;DHT22;46541;49.894;10.886;2023-12-20T01:45:01;6.30;99.90
60701;DHT22;46541;49.894;10.886;2023-12-20T01:47:29;6.20;99.90
60701;DHT22;46541;49.894;10.886;2023-12-20T01:49:56;6.30;99.90
60701;DHT22;46541;49.894;10.886;2023-12-20T01:52:25;6.20;99.90
60701;DHT22;46541;49.894;10.886;2023-12-20T01:54:52;6.30;99.90
60701;DHT22;46541;49.894;10.886;2023-12-20T01:57:21;6.20;99.90
60701;DHT22;46541;49.894;10.886;2023-12-20T01:59:48;6.20;99.90
60701;DHT22;46541;49.894;10.886;2023-12-20T02:02:14;6.20;99.90
60701;DHT22;46541;49.894;10.886;2023-12-20T02:04:41;6.30;99.90
60701;DHT22;46541;49.894;10.886;2023-12-20T02:07:08;6.30;99.90
60701;DHT22;46541;49.894;10.886;2023-12-20T02:09:36;6.20;99.90
60701;DHT22;46541;49.894;10.886;2023-12-20T02:12:05;6.20;99.90
60701;DHT22;46541;49.894;10.886;2023-12-20T02:14:32;6.20;99.90
60701;DHT22;46541;49.894;10.886;2023-12-20T02:16:59;6.30;99.90
60701;DHT22;46541;49.894;10.886;2023-12-20T02:19:25;6.20;99.90
60701;DHT22;46541;49.894;10.886;2023-12-20T02:22:06;6.30;99.90
60701;DHT22;46541;49.894;10.886;2023-12-20T02:24:33;6.20;99.90
60701;DHT22;46541;49.894;10.886;2023-12-20T02:26:59;6.20;99.90
60701;DHT22;46541;49.894;10.886;2023-12-20T02:29:27;6.20;99.90
60701;DHT22;46541;49.894;10.886;2023-12-20T02:31:53;6.20;99.90
60701;DHT22;46541;49.894;10.886;2023-12-20T02:34:20;6.20;99.90
60701;DHT22;46541;49.894;10.886;2023-12-20T02:36:47;6.20;99.90
60701;DHT22;46541;49.894;10.886;2023-12-20T02:39:14;6.20;99.90
60701;DHT22;46541;49.894;10.886;2023-12-20T02:41:40;6.20;99.90
60701;DHT22;46541;49.894;10.886;2023-12-20T02:44:07;6.20;99.90
60701;DHT22;46541;49.894;10.886;2023-12-20T02:46:34;6.20;99.90
60701;DHT22;46541;49.894;10.886;2023-12-20T02:49:01;6.20;99.90
60701;DHT22;46541;49.894;10.886;2023-12-20T02:51:28;6.20;99.90
60701;DHT22;46541;49.894;10.886;2023-12-20T02:53:54;6.20;99.90
60701;DHT22;46541;49.894;10.886;2023-12-20T02:56:21;6.20;99.90
60701;DHT22;46541;49.894;10.886;2023-12-20T02:58:48;6.20;99.90
60701;DHT22;46541;49.894;10.886;2023-12-20T03:01:15;6.10;99.90
60701;DHT22;46541;49.894;10.886;2023-12-20T03:03:41;6.10;99.90
60701;DHT22;46541;49.894;10.886;2023-12-20T03:06:08;6.20;99.90
60701;DHT22;46541;49.894;10.886;2023-12-20T03:08:35;6.20;99.90
60701;DHT22;46541;49.894;10.886;2023-12-20T03:11:02;6.10;99.90
60701;DHT22;46541;49.894;10.886;2023-12-20T03:13:28;6.10;99.90
60701;DHT22;46541;49.894;10.886;2023-12-20T03:15:55;6.10;99.90
60701;DHT22;46541;49.894;10.886;2023-12-20T03:18:22;6.20;99.90
60701;DHT22;46541;49.894;10.886;2023-12-20T03:20:49;6.20;99.90
60701;DHT22;46541;49.894;10.886;2023-12-20T03:23:17;6.20;99.90
60701;DHT22;46541;49.894;10.886;2023-12-20T03:25:44;6.10;99.90
60701;DHT22;46541;49.894;10.886;2023-12-20T03:28:10;6.10;99.90
60701;DHT22;46541;49.894;10.886;2023-12-20T03:30:37;6.10;99.90
60701;DHT22;46541;49.894;10.886;2023-12-20T03:33:04;6.10;99.90
60701;DHT22;46541;49.894;10.886;2023-12-20T03:35:31;6.00;99.90
60701;DHT22;46541;49.894;10.886;2023-12-20T03:37:58;6.00;99.90
60701;DHT22;46541;49.894;10.886;2023-12-20T03:40:26;6.00;99.90
60701;DHT22;46541;49.894;10.886;2023-12-20T03:42:53;5.90;99.90
60701;DHT22;46541;49.894;10.886;2023-12-20T03:45:20;5.90;99.90
60701;DHT22;46541;49.894;10.886;2023-12-20T03:47:47;5.90;99.90
60701;DHT22;46541;49.894;10.886;2023-12-20T03:50:15;5.80;99.90
60701;DHT22;46541;49.894;10.886;2023-12-20T03:52:41;5.80;99.90
60701;DHT22;46541;49.894;10.886;2023-12-20T03:55:08;5.80;99.90
60701;DHT22;46541;49.894;10.886;2023-12-20T03:57:35;5.80;99.90
60701;DHT22;46541;49.894;10.886;2023-12-20T04:00:02;5.80;99.90
60701;DHT22;46541;49.894;10.886;2023-12-20T04:02:29;5.70;99.90
60701;DHT22;46541;49.894;10.886;2023-12-20T04:04:55;5.80;99.90
60701;DHT22;46541;49.894;10.886;2023-12-20T04:07:22;5.70;99.90
60701;DHT22;46541;49.894;10.886;2023-12-20T04:09:49;5.70;99.90
60701;DHT22;46541;49.894;10.886;2023-12-20T04:12:16;5.70;99.90
60701;DHT22;46541;49.894;10.886;2023-12-20T04:14:43;5.70;99.90
60701;DHT22;46541;49.894;10.886;2023-12-20T04:17:09;5.70;99.90
60701;DHT22;46541;49.894;10.886;2023-12-20T04:19:36;5.70;99.90
60701;DHT22;46541;49.894;10.886;2023-12-20T04:22:03;5.70;99.90
60701;DHT22;46541;49.894;10.886;2023-12-20T04:24:30;5.70;99.90
60701;DHT22;46541;49.894;10.886;2023-12-20T04:26:57;5.60;99.90
60701;DHT22;46541;49.894;10.886;2023-12-20T04:29:23;5.70;99.90
60701;DHT22;46541;49.894;10.886;2023-12-20T04:31:50;5.60;99.90
60701;DHT22;46541;49.894;10.886;2023-12-20T04:34:18;5.70;99.90
60701;DHT22;46541;49.894;10.886;2023-12-20T04:36:45;5.70;99.90
60701;DHT22;46541;49.894;10.886;2023-12-20T04:39:13;5.60;99.90
60701;DHT22;46541;49.894;10.886;2023-12-20T04:41:41;5.60;99.90
60701;DHT22;46541;49.894;10.886;2023-12-20T04:44:08;5.70;99.90
60701;DHT22;46541;49.894;10.886;2023-12-20T04:46:34;5.70;99.90
60701;DHT22;46541;49.894;10.886;2023-12-20T04:49:02;5.70;99.90
60701;DHT22;46541;49.894;10.886;2023-12-20T04:51:29;5.70;99.90
60701;DHT22;46541;49.894;10.886;2023-12-20T04:53:56;5.70;99.90
60701;DHT22;46541;49.894;10.886;2023-12-20T04:56:22;5.70;99.90
60701;DHT22;46541;49.894;10.886;2023-12-20T04:58:49;5.70;99.90
60701;DHT22;46541;49.894;10.886;2023-12-20T05:01:16;5.70;99.90
60701;DHT22;46541;49.894;10.886;2023-12-20T05:03:43;5.70;99.90
60701;DHT22;46541;49.894;10.886;2023-12-20T05:06:10;5.70;99.90
60701;DHT22;46541;49.894;10.886;2023-12-20T05:08:37;5.70;99.90
60701;DHT22;46541;49.894;10.886;2023-12-20T05:11:04;5.70;99.90
60701;DHT22;46541;49.894;10.886;2023-12-20T05:13:31;5.70;99.90
60701;DHT22;46541;49.894;10.886;2023-12-20T05:16:10;5.70;99.90
60701;DHT22;46541;49.894;10.886;2023-12-20T05:18:37;5.70;99.90
60701;DHT22;46541;49.894;10.886;2023-12-20T05:21:04;5.70;99.90
60701;DHT22;46541;49.894;10.886;2023-12-20T05:23:31;5.70;99.90
60701;DHT22;46541;49.894;10.886;2023-12-20T05:25:57;5.80;99.90
60701;DHT22;46541;49.894;10.886;2023-12-20T05:28:25;5.80;99.90
60701;DHT22;46541;49.894;10.886;2023-12-20T05:30:52;5.80;99.90
60701;DHT22;46541;49.894;10.886;2023-12-20T05:33:19;5.80;99.90
60701;DHT22;46541;49.894;10.886;2023-12-20T05:35:46;5.80;99.90
60701;DHT22;46541;49.894;10.886;2023-12-20T05:38:13;5.80;99.90
60701;DHT22;46541;49.894;10.886;2023-12-20T05:40:40;5.90;99.90
60701;DHT22;46541;49.894;10.886;2023-12-20T05:43:06;5.80;99.90
60701;DHT22;46541;49.894;10.886;2023-12-20T05:45:33;5.90;99.90
60701;DHT22;46541;49.894;10.886;2023-12-20T05:48:01;5.80;99.90
60701;DHT22;46541;49.894;10.886;2023-12-20T05:50:27;5.80;99.90
60701;DHT22;46541;49.894;10.886;2023-12-20T05:52:54;5.90;99.90
60701;DHT22;46541;49.894;10.886;2023-12-20T05:55:21;5.80;99.90
60701;DHT22;46541;49.894;10.886;2023-12-20T05:57:48;5.90;99.90
60701;DHT22;46541;49.894;10.886;2023-12-20T06:00:16;5.90;99.90
60701;DHT22;46541;49.894;10.886;2023-12-20T06:02:43;5.80;99.90
60701;DHT22;46541;49.894;10.886;2023-12-20T06:05:10;5.80;99.90
60701;DHT22;46541;49.894;10.886;2023-12-20T06:07:36;5.80;99.90
60701;DHT22;46541;49.894;10.886;2023-12-20T06:10:03;5.80;99.90
60701;DHT22;46541;49.894;10.886;2023-12-20T06:12:32;5.90;99.90
60701;DHT22;46541;49.894;10.886;2023-12-20T06:15:02;5.90;99.90
60701;DHT22;46541;49.894;10.886;2023-12-20T06:17:29;5.90;99.90
60701;DHT22;46541;49.894;10.886;2023-12-20T06:19:57;5.90;99.90
60701;DHT22;46541;49.894;10.886;2023-12-20T06:22:25;5.90;99.90
60701;DHT22;46541;49.894;10.886;2023-12-20T06:24:51;5.90;99.90
60701;DHT22;46541;49.894;10.886;2023-12-20T06:27:18;5.90;99.90
60701;DHT22;46541;49.894;10.886;2023-12-20T06:29:45;6.00;99.90
60701;DHT22;46541;49.894;10.886;2023-12-20T06:32:12;5.90;99.90
60701;DHT22;46541;49.894;10.886;2023-12-20T06:34:38;6.00;99.90
60701;DHT22;46541;49.894;10.886;2023-12-20T06:37:05;6.00;99.90
60701;DHT22;46541;49.894;10.886;2023-12-20T06:39:32;6.00;99.90
60701;DHT22;46541;49.894;10.886;2023-12-20T06:42:00;6.00;99.90
60701;DHT22;46541;49.894;10.886;2023-12-20T06:44:27;6.00;99.90
60701;DHT22;46541;49.894;10.886;2023-12-20T06:46:54;6.00;99.90
60701;DHT22;46541;49.894;10.886;2023-12-20T06:49:20;6.00;99.90
60701;DHT22;46541;49.894;10.886;2023-12-20T06:51:47;5.90;99.90
60701;DHT22;46541;49.894;10.886;2023-12-20T06:54:14;5.90;99.90
60701;DHT22;46541;49.894;10.886;2023-12-20T06:56:41;5.90;99.90
60701;DHT22;46541;49.894;10.886;2023-12-20T06:59:07;5.90;99.90
60701;DHT22;46541;49.894;10.886;2023-12-20T07:01:34;5.90;99.90
60701;DHT22;46541;49.894;10.886;2023-12-20T07:04:01;5.90;99.90
60701;DHT22;46541;49.894;10.886;2023-12-20T07:06:28;5.80;99.90
60701;DHT22;46541;49.894;10.886;2023-12-20T07:08:55;5.90;99.90
60701;DHT22;46541;49.894;10.886;2023-12-20T07:11:21;5.80;99.90
60701;DHT22;46541;49.894;10.886;2023-12-20T07:13:48;5.80;99.90
60701;DHT22;46541;49.894;10.886;2023-12-20T07:16:16;5.80;99.90
60701;DHT22;46541;49.894;10.886;2023-12-20T07:18:43;5.80;99.90
60701;DHT22;46541;49.894;10.886;2023-12-20T07:21:09;5.80;99.90
60701;DHT22;46541;49.894;10.886;2023-12-20T07:23:36;5.80;99.90
60701;DHT22;46541;49.894;10.886;2023-12-20T07:26:03;5.80;99.90
60701;DHT22;46541;49.894;10.886;2023-12-20T07:28:30;5.80;99.90
60701;DHT22;46541;49.894;10.886;2023-12-20T07:30:57;5.80;99.90
60701;DHT22;46541;49.894;10.886;2023-12-20T07:33:24;5.80;99.90
60701;DHT22;46541;49.894;10.886;2023-12-20T07:35:51;5.80;99.90
60701;DHT22;46541;49.894;10.886;2023-12-20T07:38:18;5.70;99.90
60701;DHT22;46541;49.894;10.886;2023-12-20T07:40:45;5.70;99.90
60701;DHT22;46541;49.894;10.886;2023-12-20T07:43:12;5.70;99.90
60701;DHT22;46541;49.894;10.886;2023-12-20T07:45:38;5.70;99.90
60701;DHT22;46541;49.894;10.886;2023-12-20T07:48:06;5.80;99.90
60701;DHT22;46541;49.894;10.886;2023-12-20T07:50:33;5.80;99.90
60701;DHT22;46541;49.894;10.886;2023-12-20T07:53:02;5.80;99.90
60701;DHT22;46541;49.894;10.886;2023-12-20T07:55:29;5.80;99.90
60701;DHT22;46541;49.894;10.886;2023-12-20T07:57:58;5.80;99.90
60701;DHT22;46541;49.894;10.886;2023-12-20T08:00:24;5.80;99.90
60701;DHT22;46541;49.894;10.886;2023-12-20T08:02:51;5.80;99.90
60701;DHT22;46541;49.894;10.886;2023-12-20T08:05:18;5.90;99.90
60701;DHT22;46541;49.894;10.886;2023-12-20T08:07:45;5.90;99.90
60701;DHT22;46541;49.894;10.886;2023-12-20T08:10:12;5.90;99.90
60701;DHT22;46541;49.894;10.886;2023-12-20T08:12:39;5.90;99.90
60701;DHT22;46541;49.894;10.886;2023-12-20T08:15:06;5.90;99.90
60701;DHT22;46541;49.894;10.886;2023-12-20T08:17:33;5.80;99.90
60701;DHT22;46541;49.894;10.886;2023-12-20T08:20:00;5.80;99.90
60701;DHT22;46541;49.894;10.886;2023-12-20T08:22:27;5.80;99.90
60701;DHT22;46541;49.894;10.886;2023-12-20T08:24:54;5.80;99.90
60701;DHT22;46541;49.894;10.886;2023-12-20T08:27:21;5.80;99.90
60701;DHT22;46541;49.894;10.886;2023-12-20T08:29:48;5.80;99.90
60701;DHT22;46541;49.894;10.886;2023-12-20T08:32:16;5.80;99.90
60701;DHT22;46541;49.894;10.886;2023-12-20T08:34:43;5.80;99.90
60701;DHT22;46541;49.894;10.886;2023-12-20T08:37:10;5.90;99.90
60701;DHT22;46541;49.894;10.886;2023-12-20T08:39:36;5.90;99.90
60701;DHT22;46541;49.894;10.886;2023-12-20T08:42:03;5.90;99.90
60701;DHT22;46541;49.894;10.886;2023-12-20T08:44:30;5.90;99.90
60701;DHT22;46541;49.894;10.886;2023-12-20T08:46:57;5.90;99.90
60701;DHT22;46541;49.894;10.886;2023-12-20T08:49:24;6.00;99.90
60701;DHT22;46541;49.894;10.886;2023-12-20T08:51:52;5.90;99.90
60701;DHT22;46541;49.894;10.886;2023-12-20T08:54:19;6.00;99.90
60701;DHT22;46541;49.894;10.886;2023-12-20T08:56:46;6.10;99.90
60701;DHT22;46541;49.894;10.886;2023-12-20T08:59:12;6.10;99.90
60701;DHT22;46541;49.894;10.886;2023-12-20T09:01:39;6.10;99.90
60701;DHT22;46541;49.894;10.886;2023-12-20T09:04:06;6.10;99.90
60701;DHT22;46541;49.894;10.886;2023-12-20T09:06:33;6.30;99.90
60701;DHT22;46541;49.894;10.886;2023-12-20T09:09:00;6.40;99.90
60701;DHT22;46541;49.894;10.886;2023-12-20T09:11:27;6.50;99.90
60701;DHT22;46541;49.894;10.886;2023-12-20T09:13:54;6.50;99.90
60701;DHT22;46541;49.894;10.886;2023-12-20T09:16:20;6.60;99.90
60701;DHT22;46541;49.894;10.886;2023-12-20T09:18:47;6.60;99.90
60701;DHT22;46541;49.894;10.886;2023-12-20T09:21:14;6.70;99.90
60701;DHT22;46541;49.894;10.886;2023-12-20T09:23:41;6.80;99.90
60701;DHT22;46541;49.894;10.886;2023-12-20T09:26:08;6.90;99.90
60701;DHT22;46541;49.894;10.886;2023-12-20T09:28:34;6.90;99.90
60701;DHT22;46541;49.894;10.886;2023-12-20T09:31:04;6.90;99.90
60701;DHT22;46541;49.894;10.886;2023-12-20T09:33:33;7.00;99.90
60701;DHT22;46541;49.894;10.886;2023-12-20T09:36:00;7.00;99.90
60701;DHT22;46541;49.894;10.886;2023-12-20T09:38:27;7.00;99.90
60701;DHT22;46541;49.894;10.886;2023-12-20T09:40:54;6.90;99.90
60701;DHT22;46541;49.894;10.886;2023-12-20T09:43:24;7.00;99.90
60701;DHT22;46541;49.894;10.886;2023-12-20T09:45:53;6.90;99.90
60701;DHT22;46541;49.894;10.886;2023-12-20T09:48:20;7.00;99.90
60701;DHT22;46541;49.894;10.886;2023-12-20T09:50:47;7.00;99.90
60701;DHT22;46541;49.894;10.886;2023-12-20T09:53:19;7.10;99.90
60701;DHT22;46541;49.894;10.886;2023-12-20T09:55:47;7.10;99.90
60701;DHT22;46541;49.894;10.886;2023-12-20T09:58:15;7.20;99.90
60701;DHT22;46541;49.894;10.886;2023-12-20T10:00:43;7.20;99.90
60701;DHT22;46541;49.894;10.886;2023-12-20T10:03:11;7.20;99.90
60701;DHT22;46541;49.894;10.886;2023-12-20T10:05:39;7.20;99.90
60701;DHT22;46541;49.894;10.886;2023-12-20T10:08:09;7.10;99.90
60701;DHT22;46541;49.894;10.886;2023-12-20T10:10:36;7.20;99.90
60701;DHT22;46541;49.894;10.886;2023-12-20T10:13:13;7.20;99.90
60701;DHT22;46541;49.894;10.886;2023-12-20T10:15:40;7.30;99.90
60701;DHT22;46541;49.894;10.886;2023-12-20T10:18:09;7.30;99.90
60701;DHT22;46541;49.894;10.886;2023-12-20T10:20:36;7.50;99.90
60701;DHT22;46541;49.894;10.886;2023-12-20T10:23:03;7.70;99.90
60701;DHT22;46541;49.894;10.886;2023-12-20T10:25:30;7.80;99.90
60701;DHT22;46541;49.894;10.886;2023-12-20T10:28:17;7.70;99.90
60701;DHT22;46541;49.894;10.886;2023-12-20T10:30:46;7.50;99.90
60701;DHT22;46541;49.894;10.886;2023-12-20T10:33:12;7.60;99.90
60701;DHT22;46541;49.894;10.886;2023-12-20T10:35:40;7.60;99.90
60701;DHT22;46541;49.894;10.886;2023-12-20T10:38:12;7.60;99.90
60701;DHT22;46541;49.894;10.886;2023-12-20T10:40:41;7.50;99.90
60701;DHT22;46541;49.894;10.886;2023-12-20T10:43:08;7.60;99.90
60701;DHT22;46541;49.894;10.886;2023-12-20T10:45:36;7.60;99.90
60701;DHT22;46541;49.894;10.886;2023-12-20T10:48:04;7.70;99.90
60701;DHT22;46541;49.894;10.886;2023-12-20T10:50:31;7.70;99.90
60701;DHT22;46541;49.894;10.886;2023-12-20T10:52:59;7.80;99.90
60701;DHT22;46541;49.894;10.886;2023-12-20T10:55:27;7.80;99.90
60701;DHT22;46541;49.894;10.886;2023-12-20T10:58:07;7.80;99.90
60701;DHT22;46541;49.894;10.886;2023-12-20T11:00:40;7.80;99.90
60701;DHT22;46541;49.894;10.886;2023-12-20T11:03:12;7.70;99.90
60701;DHT22;46541;49.894;10.886;2023-12-20T11:05:59;7.60;99.90
60701;DHT22;46541;49.894;10.886;2023-12-20T11:08:36;7.50;99.90
60701;DHT22;46541;49.894;10.886;2023-12-20T11:11:12;7.60;99.90
60701;DHT22;46541;49.894;10.886;2023-12-20T11:14:03;7.70;99.90
60701;DHT22;46541;49.894;10.886;2023-12-20T11:16:32;7.80;99.90
60701;DHT22;46541;49.894;10.886;2023-12-20T11:19:14;7.80;99.90
60701;DHT22;46541;49.894;10.886;2023-12-20T11:21:41;7.80;99.90
60701;DHT22;46541;49.894;10.886;2023-12-20T11:24:09;7.80;99.90
60701;DHT22;46541;49.894;10.886;2023-12-20T11:26:36;7.80;99.90
60701;DHT22;46541;49.894;10.886;2023-12-20T11:34:51;7.80;99.90
60701;DHT22;46541;49.894;10.886;2023-12-20T11:37:20;7.80;99.90
60701;DHT22;46541;49.894;10.886;2023-12-20T11:39:55;7.80;99.90
60701;DHT22;46541;49.894;10.886;2023-12-20T11:42:23;7.80;99.90
60701;DHT22;46541;49.894;10.886;2023-12-20T11:44:50;7.70;99.90
60701;DHT22;46541;49.894;10.886;2023-12-20T11:47:17;7.70;99.90
60701;DHT22;46541;49.894;10.886;2023-12-20T11:49:48;7.70;99.90
60701;DHT22;46541;49.894;10.886;2023-12-20T11:52:16;7.70;99.90
60701;DHT22;46541;49.894;10.886;2023-12-20T11:54:42;7.80;99.90
60701;DHT22;46541;49.894;10.886;2023-12-20T11:57:09;7.70;99.90
60701;DHT22;46541;49.894;10.886;2023-12-20T11:59:36;7.80;99.90
60701;DHT22;46541;49.894;10.886;2023-12-20T12:02:03;7.80;99.90
60701;DHT22;46541;49.894;10.886;2023-12-20T12:04:30;7.70;99.90
60701;DHT22;46541;49.894;10.886;2023-12-20T12:06:57;7.70;99.90
60701;DHT22;46541;49.894;10.886;2023-12-20T12:09:24;7.70;99.90
60701;DHT22;46541;49.894;10.886;2023-12-20T12:11:51;7.70;99.90
60701;DHT22;46541;49.894;10.886;2023-12-20T12:14:18;7.60;99.90
60701;DHT22;46541;49.894;10.886;2023-12-20T12:16:46;7.70;99.90
60701;DHT22;46541;49.894;10.886;2023-12-20T12:19:25;7.60;99.90
60701;DHT22;46541;49.894;10.886;2023-12-20T12:22:09;7.50;99.90
60701;DHT22;46541;49.894;10.886;2023-12-20T12:24:44;7.60;99.90
60701;DHT22;46541;49.894;10.886;2023-12-20T12:27:12;7.60;99.90
60701;DHT22;46541;49.894;10.886;2023-12-20T12:29:39;7.70;99.90
60701;DHT22;46541;49.894;10.886;2023-12-20T12:32:07;7.70;99.90
60701;DHT22;46541;49.894;10.886;2023-12-20T12:34:35;7.60;99.90
60701;DHT22;46541;49.894;10.886;2023-12-20T12:37:03;7.60;99.90
60701;DHT22;46541;49.894;10.886;2023-12-20T12:39:30;7.50;99.90
60701;DHT22;46541;49.894;10.886;2023-12-20T12:41:57;7.50;99.90
60701;DHT22;46541;49.894;10.886;2023-12-20T12:44:24;7.50;99.90
60701;DHT22;46541;49.894;10.886;2023-12-20T12:46:51;7.50;99.90
60701;DHT22;46541;49.894;10.886;2023-12-20T12:49:20;7.40;99.90
60701;DHT22;46541;49.894;10.886;2023-12-20T12:51:48;7.30;99.90
60701;DHT22;46541;49.894;10.886;2023-12-20T12:54:15;7.20;99.90
60701;DHT22;46541;49.894;10.886;2023-12-20T12:56:44;7.20;99.90
60701;DHT22;46541;49.894;10.886;2023-12-20T12:59:11;7.20;99.90
60701;DHT22;46541;49.894;10.886;2023-12-20T13:01:38;7.20;99.90
60701;DHT22;46541;49.894;10.886;2023-12-20T13:04:06;7.10;99.90
60701;DHT22;46541;49.894;10.886;2023-12-20T13:06:37;7.10;99.90
60701;DHT22;46541;49.894;10.886;2023-12-20T13:09:05;7.10;99.90
60701;DHT22;46541;49.894;10.886;2023-12-20T13:11:33;7.10;99.90
60701;DHT22;46541;49.894;10.886;2023-12-20T13:14:01;7.10;99.90
60701;DHT22;46541;49.894;10.886;2023-12-20T13:16:30;7.10;99.90
60701;DHT22;46541;49.894;10.886;2023-12-20T13:18:57;7.10;99.90
60701;DHT22;46541;49.894;10.886;2023-12-20T13:21:25;7.10;99.90
60701;DHT22;46541;49.894;10.886;2023-12-20T13:23:52;7.00;99.90
60701;DHT22;46541;49.894;10.886;2023-12-20T13:26:20;7.00;99.90
60701;DHT22;46541;49.894;10.886;2023-12-20T13:28:47;7.00;99.90
60701;DHT22;46541;49.894;10.886;2023-12-20T13:31:13;6.90;99.90
60701;DHT22;46541;49.894;10.886;2023-12-20T13:33:40;6.90;99.90
60701;DHT22;46541;49.894;10.886;2023-12-20T13:36:07;7.00;99.90
60701;DHT22;46541;49.894;10.886;2023-12-20T13:38:35;6.90;99.90
60701;DHT22;46541;49.894;10.886;2023-12-20T13:41:01;7.00;99.90
60701;DHT22;46541;49.894;10.886;2023-12-20T13:43:28;7.00;99.90
60701;DHT22;46541;49.894;10.886;2023-12-20T13:45:56;7.10;99.90
60701;DHT22;46541;49.894;10.886;2023-12-20T13:48:22;7.10;99.90
60701;DHT22;46541;49.894;10.886;2023-12-20T13:50:50;7.10;99.90
60701;DHT22;46541;49.894;10.886;2023-12-20T13:53:16;7.10;99.90
60701;DHT22;46541;49.894;10.886;2023-12-20T13:55:43;7.10;99.90
60701;DHT22;46541;49.894;10.886;2023-12-20T13:58:12;7.10;99.90
60701;DHT22;46541;49.894;10.886;2023-12-20T14:00:40;7.00;99.90
60701;DHT22;46541;49.894;10.886;2023-12-20T14:03:06;7.10;99.90
60701;DHT22;46541;49.894;10.886;2023-12-20T14:05:33;7.10;99.90
60701;DHT22;46541;49.894;10.886;2023-12-20T14:08:02;7.10;99.90
60701;DHT22;46541;49.894;10.886;2023-12-20T14:10:29;7.20;99.90
60701;DHT22;46541;49.894;10.886;2023-12-20T14:12:56;7.20;99.90
60701;DHT22;46541;49.894;10.886;2023-12-20T14:15:23;7.20;99.90
60701;DHT22;46541;49.894;10.886;2023-12-20T14:17:52;7.20;99.90
60701;DHT22;46541;49.894;10.886;2023-12-20T14:20:19;7.20;99.90
60701;DHT22;46541;49.894;10.886;2023-12-20T14:22:46;7.20;99.90
60701;DHT22;46541;49.894;10.886;2023-12-20T14:25:14;7.20;99.90
60701;DHT22;46541;49.894;10.886;2023-12-20T14:27:41;7.20;99.90
60701;DHT22;46541;49.894;10.886;2023-12-20T14:30:12;7.20;99.90
60701;DHT22;46541;49.894;10.886;2023-12-20T14:32:41;7.20;99.90
60701;DHT22;46541;49.894;10.886;2023-12-20T14:35:08;7.20;99.90
60701;DHT22;46541;49.894;10.886;2023-12-20T14:37:36;7.10;99.90
60701;DHT22;46541;49.894;10.886;2023-12-20T14:40:10;7.00;99.90
60701;DHT22;46541;49.894;10.886;2023-12-20T14:42:38;7.00;99.90
60701;DHT22;46541;49.894;10.886;2023-12-20T14:45:05;7.00;99.90
60701;DHT22;46541;49.894;10.886;2023-12-20T14:47:32;6.90;99.90
60701;DHT22;46541;49.894;10.886;2023-12-20T14:49:59;6.80;99.90
60701;DHT22;46541;49.894;10.886;2023-12-20T14:52:26;6.80;99.90
60701;DHT22;46541;49.894;10.886;2023-12-20T14:54:52;6.80;99.90
60701;DHT22;46541;49.894;10.886;2023-12-20T14:57:19;6.80;99.90
60701;DHT22;46541;49.894;10.886;2023-12-20T14:59:46;6.70;99.90
60701;DHT22;46541;49.894;10.886;2023-12-20T15:02:13;6.70;99.90
60701;DHT22;46541;49.894;10.886;2023-12-20T15:04:39;6.70;99.90
60701;DHT22;46541;49.894;10.886;2023-12-20T15:07:07;6.70;99.90
60701;DHT22;46541;49.894;10.886;2023-12-20T15:09:34;6.70;99.90
60701;DHT22;46541;49.894;10.886;2023-12-20T15:12:01;6.80;99.90
60701;DHT22;46541;49.894;10.886;2023-12-20T15:14:27;6.70;99.90
60701;DHT22;46541;49.894;10.886;2023-12-20T15:16:55;6.70;99.90
60701;DHT22;46541;49.894;10.886;2023-12-20T15:19:22;6.70;99.90
60701;DHT22;46541;49.894;10.886;2023-12-20T15:21:49;6.70;99.90
60701;DHT22;46541;49.894;10.886;2023-12-20T15:24:17;6.70;99.90
60701;DHT22;46541;49.894;10.886;2023-12-20T15:26:46;6.70;99.90
60701;DHT22;46541;49.894;10.886;2023-12-20T15:29:13;6.60;99.90
60701;DHT22;46541;49.894;10.886;2023-12-20T15:31:43;6.60;99.90
60701;DHT22;46541;49.894;10.886;2023-12-20T15:34:10;6.50;99.90
60701;DHT22;46541;49.894;10.886;2023-12-20T15:36:38;6.50;99.90
60701;DHT22;46541;49.894;10.886;2023-12-20T15:39:06;6.50;99.90